Jacksonville Fire — MARINE1 — position and weather

sailwx.info

Track history (hours):
 
Tides and Currents Weather Stations Pressure Air Temp Water Temp Dewpoint Dewpoint Depression Visibility Wind Speed Wind Dir Waves Ship Positions

Jacksonville Fire

Last reported at 2017-Oct-17 20:08 UTC. Time now 2017-Oct-18 02:20 UTC.
Position N 37°52' W 122°30'.

Length 22 m.

MMSI: 338101854.

Date/timePositionNaut miles runAvg speedWind from/ knotsBaromVisibWave heightAir tempDewpointWater temp
2017-Oct-17 20:08N 37°52' W 122°30'0 0.0
2017-Oct-17 20:00N 37°52' W 122°30'0 0.0
2017-Oct-17 19:27N 37°52' W 122°30'917.5
2017-Oct-17 18:57N 37°60' W 122°25'2370915.0
2017-Oct-17 16:21N 42°21' W 071°01'511.7
2017-Oct-17 15:53N 42°17' W 070°56'23617136.6
2017-Oct-17 15:33N 38°02' W 122°07'131.0
2017-Oct-17 15:30N 38°02' W 122°09'2362531451.9
2017-Oct-17 15:30N 42°19' W 070°56'23764810.8
2017-Oct-17 15:01N 37°58' W 122°25'2375407173.7
2017-Oct-17 15:00N 42°20' W 070°57'23812705.7
2017-Oct-17 14:07N 37°52' W 122°30'0 0.0
2017-Oct-17 14:01N 37°52' W 122°30'2376139.4
2017-Oct-16 20:58N 42°22' W 071°03'1 2.3
2017-Oct-16 20:29N 42°21' W 071°02'3 3.6
2017-Oct-16 19:40N 42°21' W 070°58'1 6.0
2017-Oct-16 19:30N 42°20' W 070°58'4 0.1
2017-Oct-15 14:37N 42°22' W 071°03'  
2017-Oct-12 18:13N 37°52' W 122°30'237613818.2
2017-Oct-12 18:03N 42°22' W 071°03'237653126.9
2017-Oct-12 18:00N 37°52' W 122°30'2376427693.5
2017-Oct-12 18:00N 42°22' W 071°03'23754803.3
2017-Oct-12 17:30N 37°50' W 122°27'4 8.8
2017-Oct-12 17:00N 37°47' W 122°23'612.2
2017-Oct-12 16:31N 37°52' W 122°29'2375105.6
2017-Oct-11 18:01N 42°23' W 071°04'0 5.6
2017-Oct-11 17:59N 42°23' W 071°04'237591.3
2017-Oct-10 15:58N 37°52' W 122°30'1 1.9
2017-Oct-10 15:31N 37°52' W 122°29'23785677.3
2017-Oct-10 15:05N 42°20' W 070°60'215.4
2017-Oct-10 14:59N 42°20' W 070°58'4 0.1
2017-Oct-08 22:45N 42°22' W 071°03'1 0.2
2017-Oct-08 15:40N 42°23' W 071°04'2375151.4
2017-Oct-07 23:59N 37°52' W 122°30'0 0.9
2017-Oct-07 23:31N 37°52' W 122°30'1 1.5
2017-Oct-07 23:00N 37°52' W 122°29'1 1.6
2017-Oct-07 22:30N 37°51' W 122°29'1 2.2
2017-Oct-07 22:00N 37°52' W 122°29'1 2.6
2017-Oct-07 21:31N 37°51' W 122°29'1 1.7
2017-Oct-07 21:00N 37°52' W 122°28'  
Track history (hours):
 
Tides and Currents Weather Stations Pressure Air Temp Water Temp Dewpoint Dewpoint Depression Visibility Wind Speed Wind Dir Waves Ship Positions

Jacksonville Fire

Last reported at 2017-Oct-17 20:08 UTC. Time now 2017-Oct-18 02:20 UTC.
Position N 37°52' W 122°30'.

Length 22 m.

MMSI: 338101854.

Date/timePositionNaut miles runAvg speedWind from/ knotsBaromVisibWave heightAir tempDewpointWater temp
2017-Oct-17 20:08N 37°52' W 122°30'0 0.0
2017-Oct-17 20:00N 37°52' W 122°30'0 0.0
2017-Oct-17 19:27N 37°52' W 122°30'917.5
2017-Oct-17 18:57N 37°60' W 122°25'2370915.0
2017-Oct-17 16:21N 42°21' W 071°01'511.7
2017-Oct-17 15:53N 42°17' W 070°56'23617136.6
2017-Oct-17 15:33N 38°02' W 122°07'131.0
2017-Oct-17 15:30N 38°02' W 122°09'2362531451.9
2017-Oct-17 15:30N 42°19' W 070°56'23764810.8
2017-Oct-17 15:01N 37°58' W 122°25'2375407173.7
2017-Oct-17 15:00N 42°20' W 070°57'23812705.7
2017-Oct-17 14:07N 37°52' W 122°30'0 0.0
2017-Oct-17 14:01N 37°52' W 122°30'2376139.4
2017-Oct-16 20:58N 42°22' W 071°03'1 2.3
2017-Oct-16 20:29N 42°21' W 071°02'3 3.6
2017-Oct-16 19:40N 42°21' W 070°58'1 6.0
2017-Oct-16 19:30N 42°20' W 070°58'4 0.1
2017-Oct-15 14:37N 42°22' W 071°03'  
2017-Oct-12 18:13N 37°52' W 122°30'237613818.2
2017-Oct-12 18:03N 42°22' W 071°03'237653126.9
2017-Oct-12 18:00N 37°52' W 122°30'2376427693.5
2017-Oct-12 18:00N 42°22' W 071°03'23754803.3
2017-Oct-12 17:30N 37°50' W 122°27'4 8.8
2017-Oct-12 17:00N 37°47' W 122°23'612.2
2017-Oct-12 16:31N 37°52' W 122°29'2375105.6
2017-Oct-11 18:01N 42°23' W 071°04'0 5.6
2017-Oct-11 17:59N 42°23' W 071°04'237591.3
2017-Oct-10 15:58N 37°52' W 122°30'1 1.9
2017-Oct-10 15:31N 37°52' W 122°29'23785677.3
2017-Oct-10 15:05N 42°20' W 070°60'215.4
2017-Oct-10 14:59N 42°20' W 070°58'4 0.1
2017-Oct-08 22:45N 42°22' W 071°03'1 0.2
2017-Oct-08 15:40N 42°23' W 071°04'2375151.4
2017-Oct-07 23:59N 37°52' W 122°30'0 0.9
2017-Oct-07 23:31N 37°52' W 122°30'1 1.5
2017-Oct-07 23:00N 37°52' W 122°29'1 1.6
2017-Oct-07 22:30N 37°51' W 122°29'1 2.2
2017-Oct-07 22:00N 37°52' W 122°29'1 2.6
2017-Oct-07 21:31N 37°51' W 122°29'1 1.7
2017-Oct-07 21:00N 37°52' W 122°28'  

Dump ship's entire track history